Friday, October 20, 2017, 9:10 PM EDT
Back to Local

KUUU, Newport State Airport

Location: Middletown, RI, United States Lat: 41.533
Local Time: 9:10 PM EDT ( 1:10 GMT) Lon: -71.283
Time Zone: US/Eastern Elev: 170 ft

Show me the last for .
Show Decoded

2017-10-20 20:53 METAR KUUU 210053Z AUTO 30007KT 10SM CLR 16/07 A3010 RMK AO2 SLP190 T01560072 =
2017-10-20 19:53 METAR KUUU 202353Z AUTO 31007KT 10SM CLR 17/07 A3009 RMK AO2 SLP186 T01670067
                 10211 20167 51019 =
2017-10-20 18:53 METAR KUUU 202253Z AUTO 29006KT 10SM CLR 17/07 A3007 RMK AO2 SLP180 T01720072 =
2017-10-20 17:53 METAR KUUU 202153Z AUTO 30005KT 10SM CLR 18/06 A3005 RMK AO2 SLP173 T01830061 =
2017-10-20 16:53 METAR KUUU 202053Z AUTO 32008KT 10SM CLR 20/06 A3003 RMK AO2 SLP167 T02000056
                 53004 =
2017-10-20 15:53 METAR KUUU 201953Z AUTO 31011G16KT 10SM CLR 21/06 A3002 RMK AO2 SLP164 T02060061
                 =
2017-10-20 14:53 METAR KUUU 201853Z AUTO 32011KT 10SM CLR 21/06 A3001 RMK AO2 SLP160 T02060056 =
2017-10-20 13:53 METAR KUUU 201753Z AUTO 31011KT 10SM CLR 20/06 A3002 RMK AO2 SLP163 T02000056
                 10206 20144 58018 =
2017-10-20 12:53 METAR KUUU 201653Z AUTO 32010KT 10SM CLR 19/06 A3004 RMK AO2 SLP170 T01940056 =
2017-10-20 11:53 METAR KUUU 201553Z AUTO 30010KT 10SM CLR 18/06 A3006 RMK AO2 SLP176 T01830061 =
2017-10-20 10:53 METAR KUUU 201453Z AUTO 31012KT 10SM CLR 18/07 A3007 RMK AO2 SLP181 T01780072
                 50005 =
2017-10-20 09:53 METAR KUUU 201353Z AUTO 31009KT 10SM CLR 17/08 A3008 RMK AO2 SLP183 T01670083 =
2017-10-20 08:53 METAR KUUU 201253Z AUTO 30009KT 10SM CLR 16/08 A3007 RMK AO2 SLP180 T01560083 =
2017-10-20 07:53 METAR KUUU 201153Z AUTO 30008KT 10SM CLR 14/08 A3006 RMK AO2 SLP176 T01440083
                 10167 20122 53014 =
2017-10-20 06:53 METAR KUUU 201053Z AUTO 29008KT 10SM CLR 14/08 A3003 RMK AO2 SLP167 T01440083 =
2017-10-20 05:53 METAR KUUU 200953Z AUTO 31009KT 10SM CLR 14/10 A3003 RMK AO2 SLP168 T01440100 =
2017-10-20 04:53 METAR KUUU 200853Z AUTO 00000KT 10SM CLR 13/11 A3002 RMK AO2 SLP162 T01280111
                 55001 =
2017-10-20 03:53 METAR KUUU 200753Z AUTO 31003KT 10SM CLR 16/12 A3001 RMK AO2 SLP160 T01560117 =
2017-10-20 02:53 METAR KUUU 200653Z AUTO VRB04KT 10SM CLR 16/13 A3001 RMK AO2 SLP160 T01610133 =
2017-10-20 01:53 METAR KUUU 200553Z AUTO VRB04KT 10SM CLR 17/13 A3002 RMK AO2 SLP163 T01670133
                 10167 20156 58010 =
2017-10-20 00:53 METAR KUUU 200453Z AUTO VRB04KT 10SM CLR 17/14 A3003 RMK AO2 SLP168 T01670139
                 401940094 =
2017-10-19 23:53 METAR KUUU 200353Z AUTO VRB05KT 10SM CLR 16/14 A3004 RMK AO2 SLP171 T01560139 =
2017-10-19 22:53 METAR KUUU 200253Z AUTO 22009G17KT 180V240 10SM CLR 16/14 A3005 RMK AO2 SLP173
                 T01610144 58004 =
2017-10-19 21:53 METAR KUUU 200153Z AUTO 21009G16KT 10SM CLR 16/14 A3006 RMK AO2 SLP177 T01610144
                 =

Support USWX by starting your Amazon purchase here.